sensor_id;sensor_type;location;lat;lon;timestamp;pressure;altitude;pressure_sealevel;temperature;humidity
33496;BME280;19836;55.812;37.560;2023-06-05T00:00:57;99963.22;;;12.66;53.81
33496;BME280;19836;55.812;37.560;2023-06-05T00:03:24;99953.28;;;12.68;53.38
33496;BME280;19836;55.812;37.560;2023-06-05T00:05:53;99953.19;;;12.71;53.31
33496;BME280;19836;55.812;37.560;2023-06-05T00:08:19;99955.75;;;12.74;53.26
33496;BME280;19836;55.812;37.560;2023-06-05T00:10:46;99952.06;;;12.77;53.44
33496;BME280;19836;55.812;37.560;2023-06-05T00:13:13;99940.41;;;12.78;53.57
33496;BME280;19836;55.812;37.560;2023-06-05T00:15:39;99936.78;;;12.79;53.35
33496;BME280;19836;55.812;37.560;2023-06-05T00:18:05;99950.09;;;12.82;53.02
33496;BME280;19836;55.812;37.560;2023-06-05T00:20:32;99951.84;;;12.83;52.96
33496;BME280;19836;55.812;37.560;2023-06-05T00:22:58;99941.97;;;12.83;52.48
33496;BME280;19836;55.812;37.560;2023-06-05T00:25:24;99945.59;;;12.82;51.97
33496;BME280;19836;55.812;37.560;2023-06-05T00:27:51;99941.94;;;12.85;52.18
33496;BME280;19836;55.812;37.560;2023-06-05T00:30:18;99942.78;;;12.85;52.67
33496;BME280;19836;55.812;37.560;2023-06-05T00:32:45;99943.72;;;12.84;52.84
33496;BME280;19836;55.812;37.560;2023-06-05T00:35:11;99946.41;;;12.84;52.72
33496;BME280;19836;55.812;37.560;2023-06-05T00:37:38;99950.84;;;12.85;52.83
33496;BME280;19836;55.812;37.560;2023-06-05T00:40:06;99945.47;;;12.85;52.70
33496;BME280;19836;55.812;37.560;2023-06-05T00:42:32;99949.00;;;12.87;52.58
33496;BME280;19836;55.812;37.560;2023-06-05T00:44:59;99948.88;;;12.90;52.55
33496;BME280;19836;55.812;37.560;2023-06-05T00:47:26;99949.81;;;12.89;52.08
33496;BME280;19836;55.812;37.560;2023-06-05T00:49:52;99946.25;;;12.89;51.89
33496;BME280;19836;55.812;37.560;2023-06-05T00:52:19;99956.91;;;12.92;51.86
33496;BME280;19836;55.812;37.560;2023-06-05T00:54:46;99937.22;;;12.91;52.15
33496;BME280;19836;55.812;37.560;2023-06-05T00:57:12;99952.41;;;12.92;52.25
33496;BME280;19836;55.812;37.560;2023-06-05T00:59:39;99955.09;;;12.92;51.94
33496;BME280;19836;55.812;37.560;2023-06-05T01:02:06;99951.56;;;12.90;52.13
33496;BME280;19836;55.812;37.560;2023-06-05T01:04:35;99956.13;;;12.88;51.74
33496;BME280;19836;55.812;37.560;2023-06-05T01:07:02;99954.38;;;12.87;51.80
33496;BME280;19836;55.812;37.560;2023-06-05T01:09:29;99954.38;;;12.87;52.12
33496;BME280;19836;55.812;37.560;2023-06-05T01:12:17;99943.72;;;12.84;52.34
33496;BME280;19836;55.812;37.560;2023-06-05T01:14:48;99950.09;;;12.82;52.41
33496;BME280;19836;55.812;37.560;2023-06-05T01:17:16;99954.66;;;12.80;52.44
33496;BME280;19836;55.812;37.560;2023-06-05T01:19:46;99943.13;;;12.76;52.20
33496;BME280;19836;55.812;37.560;2023-06-05T01:22:15;99951.31;;;12.73;52.24
33496;BME280;19836;55.812;37.560;2023-06-05T01:24:44;99939.69;;;12.73;52.08
33496;BME280;19836;55.812;37.560;2023-06-05T01:27:30;99940.53;;;12.73;52.14
33496;BME280;19836;55.812;37.560;2023-06-05T01:30:32;99950.31;;;12.76;51.92
33496;BME280;19836;55.812;37.560;2023-06-05T01:33:10;99944.06;;;12.75;51.50
33496;BME280;19836;55.812;37.560;2023-06-05T01:35:38;99945.78;;;12.78;51.73
33496;BME280;19836;55.812;37.560;2023-06-05T01:38:06;99946.59;;;12.80;51.19
33496;BME280;19836;55.812;37.560;2023-06-05T01:40:35;99938.53;;;12.80;51.36
33496;BME280;19836;55.812;37.560;2023-06-05T01:43:03;99948.16;;;12.85;51.77
33496;BME280;19836;55.812;37.560;2023-06-05T01:45:31;99941.78;;;12.88;51.67
33496;BME280;19836;55.812;37.560;2023-06-05T01:48:01;99948.88;;;12.90;51.45
33496;BME280;19836;55.812;37.560;2023-06-05T01:50:33;99951.47;;;12.93;51.19
33496;BME280;19836;55.812;37.560;2023-06-05T01:53:01;99954.91;;;12.98;51.21
33496;BME280;19836;55.812;37.560;2023-06-05T01:55:28;99961.16;;;12.99;50.91
33496;BME280;19836;55.812;37.560;2023-06-05T01:57:55;99964.72;;;12.99;50.87
33496;BME280;19836;55.812;37.560;2023-06-05T02:00:21;99957.59;;;12.98;50.88
33496;BME280;19836;55.812;37.560;2023-06-05T02:02:49;99954.94;;;12.97;50.69
33496;BME280;19836;55.812;37.560;2023-06-05T02:05:17;99964.72;;;12.99;51.07
33496;BME280;19836;55.812;37.560;2023-06-05T02:07:48;99960.34;;;12.95;51.06
33496;BME280;19836;55.812;37.560;2023-06-05T02:10:15;99968.28;;;13.00;51.22
33496;BME280;19836;55.812;37.560;2023-06-05T02:12:46;99957.50;;;13.01;51.01
33496;BME280;19836;55.812;37.560;2023-06-05T02:15:13;99970.75;;;13.06;51.09
33496;BME280;19836;55.812;37.560;2023-06-05T02:17:41;99970.72;;;13.07;51.33
33496;BME280;19836;55.812;37.560;2023-06-05T02:20:14;99963.44;;;13.09;50.81
33496;BME280;19836;55.812;37.560;2023-06-05T02:22:43;99967.09;;;13.08;51.02
33496;BME280;19836;55.812;37.560;2023-06-05T02:25:18;99969.66;;;13.11;50.76
33496;BME280;19836;55.812;37.560;2023-06-05T02:27:48;99969.53;;;13.14;51.05
33496;BME280;19836;55.812;37.560;2023-06-05T02:30:14;99974.91;;;13.14;51.30
33496;BME280;19836;55.812;37.560;2023-06-05T02:32:44;99978.44;;;13.16;50.98
33496;BME280;19836;55.812;37.560;2023-06-05T02:35:11;99970.25;;;13.19;51.27
33496;BME280;19836;55.812;37.560;2023-06-05T02:37:39;99967.69;;;13.16;51.27
33496;BME280;19836;55.812;37.560;2023-06-05T02:40:13;99979.50;;;13.12;51.29
33496;BME280;19836;55.812;37.560;2023-06-05T02:42:40;99971.53;;;13.09;51.29
33496;BME280;19836;55.812;37.560;2023-06-05T02:45:08;99990.25;;;13.12;51.67
33496;BME280;19836;55.812;37.560;2023-06-05T02:47:35;99983.03;;;13.13;51.70
33496;BME280;19836;55.812;37.560;2023-06-05T02:50:03;99983.94;;;13.13;51.96
33496;BME280;19836;55.812;37.560;2023-06-05T02:52:34;99987.44;;;13.15;51.98
33496;BME280;19836;55.812;37.560;2023-06-05T02:55:08;99983.66;;;13.21;52.14
33496;BME280;19836;55.812;37.560;2023-06-05T02:57:35;99984.25;;;13.29;52.14
33496;BME280;19836;55.812;37.560;2023-06-05T03:00:11;99986.88;;;13.30;52.11
33496;BME280;19836;55.812;37.560;2023-06-05T03:13:05;99984.59;;;13.43;52.77
33496;BME280;19836;55.812;37.560;2023-06-05T03:15:34;99988.19;;;13.43;52.82
33496;BME280;19836;55.812;37.560;2023-06-05T03:18:01;99987.41;;;13.40;52.59
33496;BME280;19836;55.812;37.560;2023-06-05T03:36:23;99979.84;;;13.49;53.20
33496;BME280;19836;55.812;37.560;2023-06-05T03:38:51;99987.84;;;13.52;53.19
33496;BME280;19836;55.812;37.560;2023-06-05T03:41:20;99981.50;;;13.53;53.29
33496;BME280;19836;55.812;37.560;2023-06-05T03:43:47;99976.13;;;13.53;53.23
33496;BME280;19836;55.812;37.560;2023-06-05T03:46:16;99982.50;;;13.51;53.20
33496;BME280;19836;55.812;37.560;2023-06-05T03:49:16;99987.94;;;13.49;53.34
33496;BME280;19836;55.812;37.560;2023-06-05T03:51:46;99980.06;;;13.45;53.96
33496;BME280;19836;55.812;37.560;2023-06-05T03:54:14;99980.19;;;13.40;54.44
33496;BME280;19836;55.812;37.560;2023-06-05T03:57:01;99975.00;;;13.36;55.02
33496;BME280;19836;55.812;37.560;2023-06-05T03:59:45;99964.91;;;13.42;56.37
33496;BME280;19836;55.812;37.560;2023-06-05T04:02:13;99955.63;;;13.49;56.60
33496;BME280;19836;55.812;37.560;2023-06-05T04:05:41;99951.41;;;13.65;57.19
33496;BME280;19836;55.812;37.560;2023-06-05T04:08:58;99961.13;;;13.69;57.74
33496;BME280;19836;55.812;37.560;2023-06-05T04:11:31;99965.47;;;13.73;57.58
33496;BME280;19836;55.812;37.560;2023-06-05T04:14:09;99961.22;;;13.89;57.63
33496;BME280;19836;55.812;37.560;2023-06-05T04:17:03;99963.88;;;14.12;57.59
33496;BME280;19836;55.812;37.560;2023-06-05T04:20:00;99978.97;;;14.38;57.73
33496;BME280;19836;55.812;37.560;2023-06-05T04:25:26;99969.22;;;14.77;56.66
33496;BME280;19836;55.812;37.560;2023-06-05T04:27:56;99965.78;;;14.93;56.21
33496;BME280;19836;55.812;37.560;2023-06-05T04:30:23;99965.72;;;14.95;55.39
33496;BME280;19836;55.812;37.560;2023-06-05T04:32:51;99964.69;;;14.77;55.07
33496;BME280;19836;55.812;37.560;2023-06-05T04:35:22;99975.19;;;14.63;55.13
33496;BME280;19836;55.812;37.560;2023-06-05T04:37:49;99976.66;;;14.50;55.41
33496;BME280;19836;55.812;37.560;2023-06-05T04:40:45;99981.69;;;14.16;55.66
33496;BME280;19836;55.812;37.560;2023-06-05T04:43:11;99986.66;;;13.82;57.58
33496;BME280;19836;55.812;37.560;2023-06-05T04:45:38;99986.50;;;13.64;58.99
33496;BME280;19836;55.812;37.560;2023-06-05T04:48:05;99981.69;;;13.49;60.17
33496;BME280;19836;55.812;37.560;2023-06-05T04:50:32;99979.69;;;13.31;60.71
33496;BME280;19836;55.812;37.560;2023-06-05T04:53:06;99981.25;;;13.13;62.04
33496;BME280;19836;55.812;37.560;2023-06-05T04:58:41;99980.03;;;12.97;63.12
33496;BME280;19836;55.812;37.560;2023-06-05T05:01:17;99986.53;;;12.90;64.08
33496;BME280;19836;55.812;37.560;2023-06-05T05:03:48;99981.38;;;12.84;64.63
33496;BME280;19836;55.812;37.560;2023-06-05T05:06:17;99983.03;;;12.88;65.35
33496;BME280;19836;55.812;37.560;2023-06-05T05:12:17;99980.31;;;13.14;66.19
33496;BME280;19836;55.812;37.560;2023-06-05T05:14:50;99981.63;;;13.27;66.36
33496;BME280;19836;55.812;37.560;2023-06-05T05:26:22;99987.09;;;13.70;67.56
33496;BME280;19836;55.812;37.560;2023-06-05T05:59:36;99986.22;;;14.14;65.40
33496;BME280;19836;55.812;37.560;2023-06-05T06:02:02;99994.94;;;13.99;65.61
33496;BME280;19836;55.812;37.560;2023-06-05T06:04:35;99980.66;;;13.97;65.79
33496;BME280;19836;55.812;37.560;2023-06-05T06:07:02;99989.28;;;14.05;65.56
33496;BME280;19836;55.812;37.560;2023-06-05T06:09:29;99990.50;;;14.21;65.40
33496;BME280;19836;55.812;37.560;2023-06-05T06:11:56;99991.47;;;14.40;65.04
33496;BME280;19836;55.812;37.560;2023-06-05T06:14:23;99980.81;;;14.59;64.57
33496;BME280;19836;55.812;37.560;2023-06-05T06:16:52;99980.38;;;14.68;64.54
33496;BME280;19836;55.812;37.560;2023-06-05T06:19:21;99981.84;;;14.76;63.97
33496;BME280;19836;55.812;37.560;2023-06-05T06:21:50;99976.09;;;14.84;63.85
33496;BME280;19836;55.812;37.560;2023-06-05T06:24:17;99977.63;;;14.89;63.53
33496;BME280;19836;55.812;37.560;2023-06-05T06:26:46;99979.00;;;14.99;62.37
33496;BME280;19836;55.812;37.560;2023-06-05T06:29:19;99985.06;;;15.04;62.48
33496;BME280;19836;55.812;37.560;2023-06-05T06:31:49;99985.22;;;15.01;62.44
33496;BME280;19836;55.812;37.560;2023-06-05T06:34:16;99989.66;;;15.02;62.63
33496;BME280;19836;55.812;37.560;2023-06-05T06:36:42;99977.63;;;15.09;62.78
33496;BME280;19836;55.812;37.560;2023-06-05T06:39:10;99980.72;;;15.20;62.29
33496;BME280;19836;55.812;37.560;2023-06-05T06:41:37;99980.47;;;15.26;61.75
33496;BME280;19836;55.812;37.560;2023-06-05T06:44:03;99980.47;;;15.26;61.23
33496;BME280;19836;55.812;37.560;2023-06-05T06:46:31;99981.28;;;15.08;60.65
33496;BME280;19836;55.812;37.560;2023-06-05T06:48:57;99977.38;;;14.95;60.95
33496;BME280;19836;55.812;37.560;2023-06-05T06:51:24;99972.78;;;14.97;61.23
33496;BME280;19836;55.812;37.560;2023-06-05T06:53:51;99966.84;;;15.09;61.25
33496;BME280;19836;55.812;37.560;2023-06-05T06:56:17;99959.81;;;15.25;60.55
33496;BME280;19836;55.812;37.560;2023-06-05T06:58:44;99958.34;;;15.38;60.01
33496;BME280;19836;55.812;37.560;2023-06-05T07:01:14;99958.84;;;15.46;59.64
33496;BME280;19836;55.812;37.560;2023-06-05T07:03:41;99959.25;;;15.57;59.01
33496;BME280;19836;55.812;37.560;2023-06-05T07:06:09;99962.44;;;15.65;59.21
33496;BME280;19836;55.812;37.560;2023-06-05T07:08:37;99950.25;;;15.75;58.70
33496;BME280;19836;55.812;37.560;2023-06-05T07:11:03;99952.00;;;15.95;58.27
33496;BME280;19836;55.812;37.560;2023-06-05T07:13:30;99948.56;;;16.10;57.58
33496;BME280;19836;55.812;37.560;2023-06-05T07:15:56;99944.88;;;16.29;57.29
33496;BME280;19836;55.812;37.560;2023-06-05T07:18:22;99947.16;;;16.55;56.81
33496;BME280;19836;55.812;37.560;2023-06-05T07:20:48;99948.75;;;16.59;56.72
33496;BME280;19836;55.812;37.560;2023-06-05T07:23:14;99940.25;;;16.50;56.48
33496;BME280;19836;55.812;37.560;2023-06-05T07:25:59;99949.16;;;16.33;57.16
33496;BME280;19836;55.812;37.560;2023-06-05T07:28:25;99942.81;;;16.34;57.18
33496;BME280;19836;55.812;37.560;2023-06-05T07:30:52;99938.97;;;16.40;56.63
33496;BME280;19836;55.812;37.560;2023-06-05T07:33:18;99947.22;;;16.54;55.79
33496;BME280;19836;55.812;37.560;2023-06-05T07:35:44;99946.38;;;16.70;55.99
33496;BME280;19836;55.812;37.560;2023-06-05T07:38:11;99956.56;;;16.82;55.93
33496;BME280;19836;55.812;37.560;2023-06-05T07:40:37;99956.19;;;16.90;55.21
33496;BME280;19836;55.812;37.560;2023-06-05T07:43:03;99957.97;;;17.06;55.08
33496;BME280;19836;55.812;37.560;2023-06-05T07:45:29;99963.22;;;17.26;54.50
33496;BME280;19836;55.812;37.560;2023-06-05T07:47:56;99965.50;;;17.51;53.76
33496;BME280;19836;55.812;37.560;2023-06-05T07:50:22;99958.91;;;17.72;53.18
33496;BME280;19836;55.812;37.560;2023-06-05T07:52:48;99953.41;;;17.73;52.70
33496;BME280;19836;55.812;37.560;2023-06-05T07:55:13;99955.00;;;17.77;52.32
33496;BME280;19836;55.812;37.560;2023-06-05T07:57:41;99950.50;;;17.61;52.06
33496;BME280;19836;55.812;37.560;2023-06-05T08:00:07;99949.97;;;17.54;52.28
33496;BME280;19836;55.812;37.560;2023-06-05T08:02:38;99931.53;;;17.76;52.33
33496;BME280;19836;55.812;37.560;2023-06-05T08:05:04;99932.25;;;17.95;51.94
33496;BME280;19836;55.812;37.560;2023-06-05T08:07:31;99937.84;;;18.23;51.76
33496;BME280;19836;55.812;37.560;2023-06-05T08:09:57;99937.84;;;18.39;50.95
33496;BME280;19836;55.812;37.560;2023-06-05T08:12:23;99939.09;;;18.33;50.51
33496;BME280;19836;55.812;37.560;2023-06-05T08:14:49;99932.91;;;18.30;49.97
33496;BME280;19836;55.812;37.560;2023-06-05T08:17:14;99931.56;;;18.38;49.98
33496;BME280;19836;55.812;37.560;2023-06-05T08:19:41;99933.09;;;18.42;49.30
33496;BME280;19836;55.812;37.560;2023-06-05T08:22:06;99936.09;;;18.38;49.16
33496;BME280;19836;55.812;37.560;2023-06-05T08:24:32;99938.91;;;18.36;49.24
33496;BME280;19836;55.812;37.560;2023-06-05T08:26:58;99933.81;;;18.46;49.02
33496;BME280;19836;55.812;37.560;2023-06-05T08:29:26;99927.44;;;18.47;48.82
33496;BME280;19836;55.812;37.560;2023-06-05T08:31:53;99916.66;;;18.45;48.67
33496;BME280;19836;55.812;37.560;2023-06-05T08:34:20;99916.78;;;18.73;48.48
33496;BME280;19836;55.812;37.560;2023-06-05T08:36:46;99924.16;;;18.85;48.49
33496;BME280;19836;55.812;37.560;2023-06-05T08:39:12;99918.72;;;18.85;48.14
33496;BME280;19836;55.812;37.560;2023-06-05T08:41:39;99916.78;;;18.87;48.06
33496;BME280;19836;55.812;37.560;2023-06-05T08:44:05;99914.00;;;19.03;47.58
33496;BME280;19836;55.812;37.560;2023-06-05T08:46:34;99913.25;;;19.15;46.81
33496;BME280;19836;55.812;37.560;2023-06-05T08:49:07;99909.00;;;19.25;46.32
33496;BME280;19836;55.812;37.560;2023-06-05T08:51:37;99892.13;;;19.34;45.95
33496;BME280;19836;55.812;37.560;2023-06-05T08:54:05;99901.91;;;19.08;45.01
33496;BME280;19836;55.812;37.560;2023-06-05T08:56:39;99907.69;;;19.02;44.83
33496;BME280;19836;55.812;37.560;2023-06-05T08:59:06;99891.97;;;19.07;45.29
33496;BME280;19836;55.812;37.560;2023-06-05T09:01:32;99885.13;;;19.30;45.19
33496;BME280;19836;55.812;37.560;2023-06-05T09:03:58;99894.94;;;19.46;44.41
33496;BME280;19836;55.812;37.560;2023-06-05T09:06:24;99890.56;;;19.30;44.16
33496;BME280;19836;55.812;37.560;2023-06-05T09:08:50;99886.56;;;19.21;44.52
33496;BME280;19836;55.812;37.560;2023-06-05T09:11:30;99882.69;;;19.11;44.84
33496;BME280;19836;55.812;37.560;2023-06-05T09:14:01;99882.63;;;19.27;45.17
33496;BME280;19836;55.812;37.560;2023-06-05T09:16:34;99880.44;;;19.88;44.64
33496;BME280;19836;55.812;37.560;2023-06-05T09:19:01;99871.53;;;20.12;43.71
33496;BME280;19836;55.812;37.560;2023-06-05T09:21:28;99873.91;;;19.90;44.05
33496;BME280;19836;55.812;37.560;2023-06-05T09:26:57;99869.59;;;19.18;44.61
33496;BME280;19836;55.812;37.560;2023-06-05T09:29:28;99869.59;;;19.18;45.17
33496;BME280;19836;55.812;37.560;2023-06-05T09:31:56;99867.31;;;19.94;44.58
33496;BME280;19836;55.812;37.560;2023-06-05T09:34:24;99876.69;;;20.17;42.60
33496;BME280;19836;55.812;37.560;2023-06-05T09:36:50;99892.28;;;19.87;42.24
33496;BME280;19836;55.812;37.560;2023-06-05T09:39:18;99912.78;;;19.08;42.87
33496;BME280;19836;55.812;37.560;2023-06-05T09:41:48;99927.53;;;18.14;44.95
33496;BME280;19836;55.812;37.560;2023-06-05T09:44:18;99947.03;;;17.42;47.02
33496;BME280;19836;55.812;37.560;2023-06-05T09:47:01;99938.72;;;16.26;51.98
33496;BME280;19836;55.812;37.560;2023-06-05T09:49:52;99927.19;;;15.50;54.48
33496;BME280;19836;55.812;37.560;2023-06-05T09:52:19;99921.28;;;15.22;55.66
33496;BME280;19836;55.812;37.560;2023-06-05T09:54:45;99918.50;;;15.23;56.72
33496;BME280;19836;55.812;37.560;2023-06-05T09:57:13;99923.72;;;15.46;57.65
33496;BME280;19836;55.812;37.560;2023-06-05T09:59:54;99912.19;;;15.98;58.17
33496;BME280;19836;55.812;37.560;2023-06-05T10:02:23;99916.19;;;16.78;57.64
33496;BME280;19836;55.812;37.560;2023-06-05T10:04:52;99905.19;;;18.99;54.93
33496;BME280;19836;55.812;37.560;2023-06-05T10:07:20;99895.69;;;22.07;49.61
33496;BME280;19836;55.812;37.560;2023-06-05T10:09:49;99890.56;;;24.62;44.21
33496;BME280;19836;55.812;37.560;2023-06-05T10:12:16;99891.00;;;26.29;39.73
33496;BME280;19836;55.812;37.560;2023-06-05T10:14:44;99876.00;;;27.47;36.70
33496;BME280;19836;55.812;37.560;2023-06-05T10:17:12;99879.59;;;28.48;34.54
33496;BME280;19836;55.812;37.560;2023-06-05T10:19:44;99893.81;;;29.23;32.09
33496;BME280;19836;55.812;37.560;2023-06-05T10:22:16;99891.38;;;29.88;30.90
33496;BME280;19836;55.812;37.560;2023-06-05T10:24:48;99880.19;;;29.47;29.73
33496;BME280;19836;55.812;37.560;2023-06-05T10:30:37;99875.06;;;30.44;28.11
33496;BME280;19836;55.812;37.560;2023-06-05T10:33:21;99872.06;;;31.19;27.12
33496;BME280;19836;55.812;37.560;2023-06-05T10:38:32;99869.13;;;31.29;25.20
33496;BME280;19836;55.812;37.560;2023-06-05T10:41:01;99862.38;;;30.83;24.77
33496;BME280;19836;55.812;37.560;2023-06-05T10:43:47;99854.41;;;31.12;25.05
33496;BME280;19836;55.812;37.560;2023-06-05T10:46:31;99856.41;;;31.99;24.44
33496;BME280;19836;55.812;37.560;2023-06-05T10:49:13;99858.13;;;32.38;24.08
33496;BME280;19836;55.812;37.560;2023-06-05T10:51:47;99845.72;;;31.80;23.86
33496;BME280;19836;55.812;37.560;2023-06-05T10:59:20;99864.38;;;26.20;29.51
33496;BME280;19836;55.812;37.560;2023-06-05T11:07:27;99880.25;;;21.95;36.12
33496;BME280;19836;55.812;37.560;2023-06-05T11:10:04;99898.19;;;21.12;38.14
33496;BME280;19836;55.812;37.560;2023-06-05T11:15:06;99901.19;;;20.03;40.49
33496;BME280;19836;55.812;37.560;2023-06-05T11:17:34;99900.28;;;19.48;41.95
33496;BME280;19836;55.812;37.560;2023-06-05T11:20:08;99900.47;;;19.17;43.23
33496;BME280;19836;55.812;37.560;2023-06-05T11:25:31;99872.13;;;19.07;44.60
33496;BME280;19836;55.812;37.560;2023-06-05T11:28:02;99869.41;;;19.21;45.13
33496;BME280;19836;55.812;37.560;2023-06-05T11:30:32;99883.97;;;19.62;44.76
33496;BME280;19836;55.812;37.560;2023-06-05T11:33:09;99871.53;;;22.14;42.80
33496;BME280;19836;55.812;37.560;2023-06-05T11:35:35;99866.88;;;24.92;38.63
33496;BME280;19836;55.812;37.560;2023-06-05T11:40:34;99863.41;;;28.35;32.48
33496;BME280;19836;55.812;37.560;2023-06-05T11:43:14;99860.53;;;29.24;31.04
33496;BME280;19836;55.812;37.560;2023-06-05T11:45:42;99864.41;;;29.82;28.61
33496;BME280;19836;55.812;37.560;2023-06-05T11:48:14;99862.28;;;29.76;28.33
33496;BME280;19836;55.812;37.560;2023-06-05T11:51:00;99865.06;;;27.19;29.56
33496;BME280;19836;55.812;37.560;2023-06-05T11:53:28;99881.84;;;24.88;31.76
33496;BME280;19836;55.812;37.560;2023-06-05T11:55:56;99893.78;;;23.36;34.06
33496;BME280;19836;55.812;37.560;2023-06-05T11:58:42;99900.41;;;22.05;36.79
33496;BME280;19836;55.812;37.560;2023-06-05T12:01:15;99922.19;;;21.19;39.04
33496;BME280;19836;55.812;37.560;2023-06-05T12:03:48;99946.81;;;20.52;40.57
33496;BME280;19836;55.812;37.560;2023-06-05T12:06:16;99939.31;;;19.33;43.64
33496;BME280;19836;55.812;37.560;2023-06-05T12:08:43;99938.66;;;18.70;45.67
33496;BME280;19836;55.812;37.560;2023-06-05T12:13:56;99929.09;;;18.03;48.28
33496;BME280;19836;55.812;37.560;2023-06-05T12:16:33;99925.59;;;17.85;48.84
33496;BME280;19836;55.812;37.560;2023-06-05T12:19:01;99920.19;;;17.85;49.55
33496;BME280;19836;55.812;37.560;2023-06-05T12:21:28;99916.34;;;17.89;50.10
33496;BME280;19836;55.812;37.560;2023-06-05T12:24:02;99913.16;;;18.12;50.61
33496;BME280;19836;55.812;37.560;2023-06-05T12:26:28;99913.09;;;18.74;50.21
33496;BME280;19836;55.812;37.560;2023-06-05T12:29:06;99901.69;;;22.12;46.60
33496;BME280;19836;55.812;37.560;2023-06-05T12:31:36;99901.56;;;24.82;41.26
33496;BME280;19836;55.812;37.560;2023-06-05T12:34:05;99893.69;;;27.16;36.53
33496;BME280;19836;55.812;37.560;2023-06-05T12:36:38;99887.91;;;28.83;33.32
33496;BME280;19836;55.812;37.560;2023-06-05T12:39:05;99884.66;;;29.65;31.62
33496;BME280;19836;55.812;37.560;2023-06-05T12:41:32;99877.06;;;29.93;30.09
33496;BME280;19836;55.812;37.560;2023-06-05T12:44:03;99879.59;;;29.86;29.68
33496;BME280;19836;55.812;37.560;2023-06-05T12:46:31;99878.97;;;28.89;29.62
33496;BME280;19836;55.812;37.560;2023-06-05T12:49:01;99874.03;;;29.27;29.25
33496;BME280;19836;55.812;37.560;2023-06-05T12:51:27;99876.09;;;29.76;29.08
33496;BME280;19836;55.812;37.560;2023-06-05T12:53:54;99879.34;;;30.05;28.98
33496;BME280;19836;55.812;37.560;2023-06-05T12:56:22;99877.03;;;29.85;28.09
33496;BME280;19836;55.812;37.560;2023-06-05T12:58:55;99863.56;;;30.23;28.05
33496;BME280;19836;55.812;37.560;2023-06-05T13:01:22;99869.25;;;29.88;27.83
33496;BME280;19836;55.812;37.560;2023-06-05T13:03:49;99875.41;;;29.06;28.03
33496;BME280;19836;55.812;37.560;2023-06-05T13:06:15;99871.47;;;29.34;27.20
33496;BME280;19836;55.812;37.560;2023-06-05T13:08:43;99869.50;;;29.26;26.59
33496;BME280;19836;55.812;37.560;2023-06-05T13:11:09;99868.84;;;28.72;27.50
33496;BME280;19836;55.812;37.560;2023-06-05T13:13:36;99864.47;;;26.87;29.30
33496;BME280;19836;55.812;37.560;2023-06-05T13:16:03;99867.09;;;26.11;30.90
33496;BME280;19836;55.812;37.560;2023-06-05T13:18:32;99868.69;;;26.04;31.46
33496;BME280;19836;55.812;37.560;2023-06-05T13:21:08;99863.22;;;26.13;31.97
33496;BME280;19836;55.812;37.560;2023-06-05T13:23:34;99853.78;;;26.65;30.97
33496;BME280;19836;55.812;37.560;2023-06-05T13:26:00;99858.19;;;25.88;31.22
33496;BME280;19836;55.812;37.560;2023-06-05T13:28:26;99855.19;;;25.31;31.94
33496;BME280;19836;55.812;37.560;2023-06-05T13:30:52;99853.81;;;24.85;32.63
33496;BME280;19836;55.812;37.560;2023-06-05T13:33:19;99858.91;;;25.10;32.90
33496;BME280;19836;55.812;37.560;2023-06-05T13:35:46;99854.78;;;25.96;31.81
33496;BME280;19836;55.812;37.560;2023-06-05T13:38:12;99838.59;;;26.02;31.77
33496;BME280;19836;55.812;37.560;2023-06-05T13:40:38;99849.13;;;26.84;30.90
33496;BME280;19836;55.812;37.560;2023-06-05T13:43:04;99839.63;;;27.80;30.02
33496;BME280;19836;55.812;37.560;2023-06-05T13:45:30;99837.59;;;28.71;28.86
33496;BME280;19836;55.812;37.560;2023-06-05T13:47:57;99833.41;;;29.20;27.85
33496;BME280;19836;55.812;37.560;2023-06-05T13:50:24;99823.22;;;29.20;26.70
33496;BME280;19836;55.812;37.560;2023-06-05T13:52:52;99824.31;;;29.27;27.06
33496;BME280;19836;55.812;37.560;2023-06-05T13:55:18;99823.13;;;29.81;26.99
33496;BME280;19836;55.812;37.560;2023-06-05T13:57:45;99818.59;;;30.13;26.60
33496;BME280;19836;55.812;37.560;2023-06-05T14:00:11;99820.84;;;30.18;26.54
33496;BME280;19836;55.812;37.560;2023-06-05T14:02:40;99826.13;;;30.53;26.15
33496;BME280;19836;55.812;37.560;2023-06-05T14:05:06;99823.94;;;30.80;25.74
33496;BME280;19836;55.812;37.560;2023-06-05T14:07:34;99817.56;;;30.88;25.24
33496;BME280;19836;55.812;37.560;2023-06-05T14:10:00;99818.41;;;31.04;25.00
33496;BME280;19836;55.812;37.560;2023-06-05T14:12:26;99801.03;;;29.55;25.52
33496;BME280;19836;55.812;37.560;2023-06-05T14:14:52;99816.56;;;29.05;26.83
33496;BME280;19836;55.812;37.560;2023-06-05T14:17:19;99822.72;;;28.64;26.63
33496;BME280;19836;55.812;37.560;2023-06-05T14:19:45;99810.31;;;26.78;27.98
33496;BME280;19836;55.812;37.560;2023-06-05T14:22:11;99815.66;;;26.32;29.25
33496;BME280;19836;55.812;37.560;2023-06-05T14:24:39;99814.53;;;26.91;29.11
33496;BME280;19836;55.812;37.560;2023-06-05T14:27:05;99821.91;;;26.72;29.38
33496;BME280;19836;55.812;37.560;2023-06-05T14:29:31;99814.66;;;26.42;29.69
33496;BME280;19836;55.812;37.560;2023-06-05T14:31:57;99810.56;;;26.08;30.03
33496;BME280;19836;55.812;37.560;2023-06-05T14:34:23;99810.03;;;25.35;30.86
33496;BME280;19836;55.812;37.560;2023-06-05T14:36:49;99812.44;;;24.67;31.63
33496;BME280;19836;55.812;37.560;2023-06-05T14:39:18;99804.25;;;23.71;32.78
33496;BME280;19836;55.812;37.560;2023-06-05T14:41:46;99807.81;;;22.95;34.14
33496;BME280;19836;55.812;37.560;2023-06-05T14:44:12;99805.25;;;22.35;35.30
33496;BME280;19836;55.812;37.560;2023-06-05T14:46:38;99807.59;;;21.82;36.27
33496;BME280;19836;55.812;37.560;2023-06-05T14:49:04;99806.34;;;21.50;37.21